Ana Sayfa
METAR-TAF:

METAR-TAF

Havaalanları :

Luanda, Angola

Enlem: 08-51S, Boylam: 013-14E, yükseklik: 74 m

Güncel hava durumu gözlemi

Rapor saat 19:00 UTC de 33 dakika önce yapıldı.
Rüzgar güneydan 10 kt
Sıcaklık 26°C
Nem 74%
Basınç 1007 hPa
Görüş mesafesi 10 km veya daha fazla
2300 ft yükseklikte az bulutlu

METAR: FNLU 171900Z 19010KT 9999 FEW023 26/21 Q1007 NOSIG

Saat: 20:33 (19:33 UTC)

Tahmin

Rapor saat 17:00 UTC de 2 saat ve 33 dakika önce yapıldı.
Ayın 17'si saat 18 UTC'den ayın 18'si saat 24 UTC'ye kadar geçerli Tahmin
Rüzgar batı/güneybatıdan 10 kt
2000 ft yükseklikte az bulutlu
Dönüşüyor
ayın 17'si saat 22 UTC'den ayın 17'si saat 24 UTC'ye kadar
Rüzgar güneydan 8 kt
2000 ft yükseklikte parçalı bulutlu
Geçici
ayın 18'si saat 04 UTC'den ayın 18'si saat 08 UTC'ye kadar
3000 ft yükseklikte parçalı çok bulutlu

TAF: FNLU 171700Z 1718/1824 24010KT //// FEW020 BECMG 1722/1724 18008KT SCT020 TEMPO 1804/1808 BKN030

4.000'den fazla havaalanı için hava durumu gözlemleri ve tahminleri (METAR ve TAF raporları).

Kullanılabilir istasyonlar harita üzerinde sarı ve kırmızı noktalarla gösterilir.

İstasyonun adını görmek için fareyi noktanın üzerinde gezdirin.

Sonrasında hava gözlem ve tahminlerini görmek için tıklayın.

Haritayı değiştirmek için: yaklaştırmak için siyah artı işaretli yeşil düğmeye ve uzaklaştırmak için de eksi işaretli düğmeye hızla tıklayın; bitişik haritalar için yeşil okları kullanın.


METAR-TAF: